Decoded Metar for UIBB (BRATSK in RUSSIA) (IATA:BTK) | Meteo·Mobile Aviation Weather
aviador You're here:

UIBB Decoded Metar

BRATSK in RUSSIA
Report Time2018-08-19 13:30:00
UTC Time2018-08-19 14:06:23
Flight Rules vfr VFR
Wind280° at 4 kt
W.Decomp.*RWY 30: 3.8 kt HW 1.3 kt LCW
W.Rank280° ranks 3
Current wind is below 280° avg. (7.8)
Visibility9999 m
Phenomena:N/A
Clouds:N/A
Expected CloudBase > 2,400 ft AGL from Temp-Dew spread
CeilingNone
Temp19°C (ISA +7)
Dew Point13°C (68% RH)
AAT18.5°C
QNH1011 hPa
Density Alt2,723 ft
Elevation1,608 ft
Report Wrong Elevation
Raw Report
METAR UIBB 191330Z AUTO 28002MPS 9999 // ///061/// 19/13 Q1011 RMK
QFE716/0954=

Extra information for UIBB:More info

Metar Taf Metar & Taf Last 4 Metars F.Rules Stats Wind Profile Meteogram Temp Stats Airport Information Weather charts Add Link Nearby VenuesMetar ALERT Operation Metar Decoded Social comments